Time;durP1;ratioP1;P1;durP2;ratioP2;P2;SDS_P1;SDS_P2;PMS_P1;PMS_P2;Temp;Humidity;BMP_temperature;BMP_pressure;BME280_temperature;BME280_humidity;BME280_pressure;Samples;Min_cycle;Max_cycle;Signal;HPM_P1;HPM_P2
2023/04/01 00:01:49;;;;;;;6.25;5.03;;;;;;;;;;4983885;28;20100;-75
2023/04/01 00:04:34;;;;;;;8.23;6.22;;;;;;;;;;4997106;28;20019;-75
2023/04/01 00:07:20;;;;;;;10.90;7.25;;;;;;;;;;4982953;28;20426;-75
2023/04/01 00:10:07;;;;;;;13.15;9.63;;;;;;;;;;4996156;28;20026;-75
2023/04/01 00:12:53;;;;;;;15.80;10.48;;;;;;;;;;4998043;28;20022;-76
2023/04/01 00:15:38;;;;;;;17.73;11.30;;;;;;;;;;4996991;28;20033;-75
2023/04/01 00:18:24;;;;;;;14.52;10.35;;;;;;;;;;4997688;28;20101;-77
2023/04/01 00:21:10;;;;;;;15.73;11.70;;;;;;;;;;4997788;28;20084;-75
2023/04/01 00:23:56;;;;;;;17.95;12.68;;;;;;;;;;4982917;28;20086;-75
2023/04/01 00:26:42;;;;;;;17.10;11.00;;;;;;;;;;4996470;28;20092;-76
2023/04/01 00:29:29;;;;;;;16.67;10.93;;;;;;;;;;4996433;28;20026;-75
2023/04/01 00:32:14;;;;;;;14.23;10.85;;;;;;;;;;4996387;28;20446;-75
2023/04/01 00:35:00;;;;;;;14.10;10.32;;;;;;;;;;4995951;28;20040;-76
2023/04/01 00:37:47;;;;;;;18.85;10.73;;;;;;;;;;4995976;28;20034;-74
2023/04/01 00:40:36;;;;;;;16.17;11.63;;;;;;;;;;4996309;28;20030;-75
2023/04/01 00:43:23;;;;;;;18.33;12.20;;;;;;;;;;4996090;28;20026;-75
2023/04/01 00:46:09;;;;;;;15.88;11.75;;;;;;;;;;4997267;28;20101;-74
2023/04/01 00:48:55;;;;;;;16.85;11.77;;;;;;;;;;4996927;28;20022;-75
2023/04/01 00:51:41;;;;;;;15.75;11.73;;;;;;;;;;4981734;28;20037;-75
2023/04/01 00:54:28;;;;;;;18.40;12.23;;;;;;;;;;4982337;28;20054;-75
2023/04/01 00:57:23;;;;;;;15.68;11.70;;;;;;;;;;4996271;28;20064;-75
2023/04/01 01:00:11;;;;;;;21.73;13.80;;;;;;;;;;4996621;28;20034;-75
2023/04/01 01:02:56;;;;;;;17.02;13.45;;;;;;;;;;4996730;28;20022;-75
2023/04/01 01:05:42;;;;;;;20.98;14.00;;;;;;;;;;4996687;28;20097;-75
2023/04/01 01:08:39;;;;;;;17.48;13.23;;;;;;;;;;4996955;28;20030;-75
2023/04/01 01:11:51;;;;;;;22.10;14.23;;;;;;;;;;4982345;28;20019;-75
2023/04/01 01:14:48;;;;;;;22.90;14.38;;;;;;;;;;4976890;28;20026;-75
2023/04/01 01:17:45;;;;;;;21.85;13.98;;;;;;;;;;4981663;28;20022;-75
2023/04/01 01:20:49;;;;;;;20.17;13.80;;;;;;;;;;4981294;28;20473;-75
2023/04/01 01:23:41;;;;;;;21.20;14.50;;;;;;;;;;4981552;28;20058;-75
2023/04/01 01:26:45;;;;;;;20.73;13.98;;;;;;;;;;4996583;28;20422;-75
2023/04/01 01:29:49;;;;;;;22.27;14.00;;;;;;;;;;4996621;28;20498;-75
2023/04/01 01:32:44;;;;;;;22.85;14.60;;;;;;;;;;4996486;28;20073;-75
2023/04/01 01:35:33;;;;;;;21.20;14.23;;;;;;;;;;4995302;28;20041;-75
2023/04/01 01:38:21;;;;;;;22.35;14.98;;;;;;;;;;4995260;28;20034;-75
2023/04/01 01:41:07;;;;;;;27.90;16.00;;;;;;;;;;4995045;28;20057;-76
2023/04/01 01:43:55;;;;;;;19.98;15.63;;;;;;;;;;4995109;28;20105;-75
2023/04/01 01:46:42;;;;;;;23.27;16.73;;;;;;;;;;4996130;28;20022;-75
2023/04/01 01:49:30;;;;;;;25.58;16.42;;;;;;;;;;4995569;28;20030;-74
2023/04/01 01:52:16;;;;;;;25.40;18.10;;;;;;;;;;4995471;28;20022;-75
2023/04/01 01:55:02;;;;;;;26.55;17.00;;;;;;;;;;4983940;28;20421;-76
2023/04/01 01:57:48;;;;;;;23.27;16.02;;;;;;;;;;4999277;28;20097;-76
2023/04/01 02:00:34;;;;;;;21.33;16.17;;;;;;;;;;5000472;28;20041;-75
2023/04/01 02:03:21;;;;;;;24.70;15.93;;;;;;;;;;4999323;28;20042;-75
2023/04/01 02:06:09;;;;;;;22.52;16.42;;;;;;;;;;4999486;28;20445;-75
2023/04/01 02:08:55;;;;;;;21.25;14.52;;;;;;;;;;4984373;28;20026;-75
2023/04/01 02:11:52;;;;;;;23.25;15.43;;;;;;;;;;4999865;28;20100;-74
2023/04/01 02:14:52;;;;;;;23.00;15.68;;;;;;;;;;4985420;28;20018;-74
2023/04/01 02:17:40;;;;;;;21.45;16.25;;;;;;;;;;4984592;28;20014;-74
2023/04/01 02:20:26;;;;;;;24.42;15.77;;;;;;;;;;5000357;28;20026;-74
2023/04/01 02:23:12;;;;;;;25.35;18.13;;;;;;;;;;4998482;28;20050;-74
2023/04/01 02:25:58;;;;;;;26.45;19.08;;;;;;;;;;4999386;28;20033;-74
2023/04/01 02:28:45;;;;;;;26.90;19.38;;;;;;;;;;5000451;28;20018;-75
2023/04/01 02:31:30;;;;;;;27.67;19.58;;;;;;;;;;5000316;28;20052;-74
2023/04/01 02:34:16;;;;;;;25.13;17.73;;;;;;;;;;4999429;28;20097;-75
2023/04/01 02:37:02;;;;;;;24.33;16.38;;;;;;;;;;4984098;28;20026;-74
2023/04/01 02:39:48;;;;;;;27.58;18.42;;;;;;;;;;4998079;28;20022;-73
2023/04/01 02:42:34;;;;;;;24.42;16.45;;;;;;;;;;4999257;28;20029;-75
2023/04/01 02:45:19;;;;;;;22.27;16.27;;;;;;;;;;4998622;28;20022;-74
2023/04/01 02:48:05;;;;;;;21.08;16.95;;;;;;;;;;4999222;28;20022;-74
2023/04/01 02:50:51;;;;;;;30.73;16.75;;;;;;;;;;4997803;28;20113;-74
2023/04/01 02:53:36;;;;;;;23.40;16.73;;;;;;;;;;4999313;28;20022;-74
2023/04/01 02:56:22;;;;;;;24.35;15.77;;;;;;;;;;4999302;28;20018;-75
2023/04/01 02:59:08;;;;;;;24.30;16.20;;;;;;;;;;4997672;28;20454;-74
2023/04/01 03:01:54;;;;;;;22.75;16.58;;;;;;;;;;4999647;28;20042;-74
2023/04/01 03:04:40;;;;;;;23.98;17.88;;;;;;;;;;4998867;28;20107;-75
2023/04/01 03:07:25;;;;;;;27.15;18.88;;;;;;;;;;4998137;28;20446;-75
2023/04/01 03:10:11;;;;;;;26.85;17.60;;;;;;;;;;4998877;28;20040;-75
2023/04/01 03:12:56;;;;;;;22.40;16.98;;;;;;;;;;4998663;28;20015;-75
2023/04/01 03:15:42;;;;;;;26.33;17.70;;;;;;;;;;4984239;28;20113;-74
2023/04/01 03:18:27;;;;;;;22.88;16.80;;;;;;;;;;4998743;28;20030;-74
2023/04/01 03:21:17;;;;;;;24.65;16.77;;;;;;;;;;4999219;28;20359;-74
2023/04/01 03:24:03;;;;;;;25.88;17.08;;;;;;;;;;4991266;28;20128;-72
2023/04/01 03:26:49;;;;;;;25.13;16.88;;;;;;;;;;5007387;28;20359;-73
2023/04/01 03:29:35;;;;;;;23.15;15.82;;;;;;;;;;5001148;28;20366;-75
2023/04/01 03:32:20;;;;;;;23.88;16.20;;;;;;;;;;4984432;28;20398;-74
2023/04/01 03:35:06;;;;;;;21.13;15.13;;;;;;;;;;4998515;28;20050;-73
2023/04/01 03:37:52;;;;;;;18.80;14.50;;;;;;;;;;4997796;28;20022;-74
2023/04/01 03:40:41;;;;;;;20.83;14.93;;;;;;;;;;4997293;28;20034;-74
2023/04/01 03:43:27;;;;;;;21.85;15.40;;;;;;;;;;4997433;28;20033;-75
2023/04/01 03:46:16;;;;;;;22.67;15.70;;;;;;;;;;4983920;28;20018;-75
2023/04/01 03:49:02;;;;;;;22.92;14.57;;;;;;;;;;4997025;28;20410;-74
2023/04/01 03:51:48;;;;;;;22.67;15.50;;;;;;;;;;4996878;28;20041;-75
2023/04/01 03:54:33;;;;;;;22.85;15.70;;;;;;;;;;4998490;28;20026;-75
2023/04/01 03:57:19;;;;;;;22.17;15.27;;;;;;;;;;4997155;28;20084;-76
2023/04/01 04:00:05;;;;;;;21.35;15.27;;;;;;;;;;4994147;28;20452;-76
2023/04/01 04:02:51;;;;;;;21.30;15.15;;;;;;;;;;4977135;28;20023;-75
2023/04/01 04:05:36;;;;;;;22.95;15.30;;;;;;;;;;4978357;28;20502;-76
2023/04/01 04:08:22;;;;;;;27.67;16.30;;;;;;;;;;4977977;28;20037;-75
2023/04/01 04:11:08;;;;;;;23.52;15.60;;;;;;;;;;4977998;28;20041;-75
2023/04/01 04:13:53;;;;;;;22.70;15.43;;;;;;;;;;4977000;28;20015;-74
2023/04/01 04:16:39;;;;;;;22.38;15.50;;;;;;;;;;4977205;28;20022;-74
2023/04/01 04:19:24;;;;;;;22.33;14.45;;;;;;;;;;4977742;28;20090;-74
2023/04/01 04:22:10;;;;;;;23.17;15.43;;;;;;;;;;4977884;28;20027;-75
2023/04/01 04:24:56;;;;;;;24.60;14.93;;;;;;;;;;4977370;28;20033;-74
2023/04/01 04:27:41;;;;;;;25.52;13.63;;;;;;;;;;4978128;28;20097;-74
2023/04/01 04:30:27;;;;;;;21.08;14.57;;;;;;;;;;4977598;28;20027;-75
2023/04/01 04:33:12;;;;;;;25.92;14.60;;;;;;;;;;4977476;28;20010;-75
2023/04/01 04:35:58;;;;;;;25.25;14.13;;;;;;;;;;4978057;28;20444;-75
2023/04/01 04:38:46;;;;;;;23.58;13.95;;;;;;;;;;4977288;28;20027;-74
2023/04/01 04:41:31;;;;;;;28.40;14.32;;;;;;;;;;4950043;28;20038;-74
2023/04/01 04:44:17;;;;;;;23.50;11.77;;;;;;;;;;4975978;28;20034;-75
2023/04/01 04:47:03;;;;;;;24.05;11.25;;;;;;;;;;4977091;28;20366;-75
2023/04/01 04:49:48;;;;;;;23.73;11.30;;;;;;;;;;4976655;28;20042;-75
2023/04/01 04:52:34;;;;;;;56.80;31.65;;;;;;;;;;4976816;28;20022;-75
2023/04/01 04:55:20;;;;;;;20.33;11.93;;;;;;;;;;4977082;28;20030;-75
2023/04/01 04:58:05;;;;;;;41.42;23.80;;;;;;;;;;4977222;28;20026;-75
2023/04/01 05:00:51;;;;;;;15.40;6.93;;;;;;;;;;4977148;28;20109;-75
2023/04/01 05:03:37;;;;;;;12.98;6.32;;;;;;;;;;4977467;28;20090;-76
2023/04/01 05:06:22;;;;;;;15.43;5.57;;;;;;;;;;4977586;28;20103;-74
2023/04/01 05:09:08;;;;;;;9.63;5.65;;;;;;;;;;4976866;28;20035;-75
2023/04/01 05:11:54;;;;;;;12.07;5.65;;;;;;;;;;4976947;28;20029;-75
2023/04/01 05:14:40;;;;;;;7.85;4.88;;;;;;;;;;4976647;28;20054;-75
2023/04/01 05:17:25;;;;;;;7.93;5.50;;;;;;;;;;4977142;28;20019;-74
2023/04/01 05:20:12;;;;;;;8.38;5.15;;;;;;;;;;4977571;28;20029;-75
2023/04/01 05:22:58;;;;;;;11.38;5.30;;;;;;;;;;4977028;28;20061;-73
2023/04/01 05:25:45;;;;;;;10.35;5.70;;;;;;;;;;4977399;28;20022;-76
2023/04/01 05:28:30;;;;;;;11.43;6.03;;;;;;;;;;4976436;28;20054;-74
2023/04/01 05:31:16;;;;;;;11.13;5.43;;;;;;;;;;4976729;28;20046;-75
2023/04/01 05:34:01;;;;;;;9.10;5.10;;;;;;;;;;4977048;28;20023;-76
2023/04/01 05:36:47;;;;;;;10.15;5.68;;;;;;;;;;4961710;28;20065;-74
2023/04/01 05:39:38;;;;;;;9.20;5.63;;;;;;;;;;4976886;28;20019;-75
2023/04/01 05:42:24;;;;;;;8.73;5.40;;;;;;;;;;4977147;28;20027;-74
2023/04/01 05:45:10;;;;;;;12.65;5.35;;;;;;;;;;4976725;28;20066;-75
2023/04/01 05:47:55;;;;;;;7.78;5.30;;;;;;;;;;4976835;28;20448;-75
2023/04/01 05:50:41;;;;;;;12.25;6.03;;;;;;;;;;4963122;28;20121;-75
2023/04/01 05:53:27;;;;;;;10.50;5.90;;;;;;;;;;4976648;28;20023;-74
2023/04/01 05:56:13;;;;;;;14.20;6.00;;;;;;;;;;4975271;28;20038;-75
2023/04/01 05:58:58;;;;;;;12.55;5.70;;;;;;;;;;4977296;28;20027;-76
2023/04/01 06:01:44;;;;;;;20.80;7.13;;;;;;;;;;4975410;28;20031;-74
2023/04/01 06:04:34;;;;;;;14.85;6.28;;;;;;;;;;4975678;28;20049;-75
2023/04/01 06:07:20;;;;;;;8.88;5.60;;;;;;;;;;4977584;28;20037;-75
2023/04/01 06:10:11;;;;;;;11.23;5.93;;;;;;;;;;4961678;28;20030;-75
2023/04/01 06:13:26;;;;;;;15.65;5.80;;;;;;;;;;4976917;28;20065;-74
2023/04/01 06:16:30;;;;;;;12.63;5.88;;;;;;;;;;4970770;28;20340;-75
2023/04/01 06:19:22;;;;;;;11.23;5.88;;;;;;;;;;4962454;28;20042;-77
2023/04/01 06:22:14;;;;;;;12.35;6.03;;;;;;;;;;4977511;28;20033;-76
2023/04/01 06:25:18;;;;;;;8.20;5.50;;;;;;;;;;4976160;28;20031;-75
2023/04/01 06:28:22;;;;;;;10.90;6.25;;;;;;;;;;4976655;28;20023;-76
2023/04/01 06:31:23;;;;;;;10.38;6.32;;;;;;;;;;4976219;28;20066;-76
2023/04/01 06:34:16;;;;;;;13.57;6.93;;;;;;;;;;4975966;28;20065;-75
2023/04/01 06:37:21;;;;;;;12.82;6.68;;;;;;;;;;4962296;28;20030;-75
2023/04/01 06:40:25;;;;;;;13.80;7.07;;;;;;;;;;4963996;28;20074;-81
2023/04/01 06:43:20;;;;;;;10.93;6.22;;;;;;;;;;4980221;28;20037;-75
2023/04/01 06:46:16;;;;;;;13.68;6.60;;;;;;;;;;4980467;28;20444;-75
2023/04/01 06:49:01;;;;;;;9.88;6.20;;;;;;;;;;4979912;28;20026;-75
2023/04/01 06:51:52;;;;;;;12.60;6.20;;;;;;;;;;4979646;28;20150;-75
2023/04/01 06:54:39;;;;;;;10.75;6.28;;;;;;;;;;4965606;28;20361;-76
2023/04/01 06:57:38;;;;;;;14.23;7.15;;;;;;;;;;4979898;28;20042;-76
2023/04/01 07:00:32;;;;;;;13.73;6.72;;;;;;;;;;4965832;28;20019;-76
2023/04/01 07:03:21;;;;;;;11.52;6.47;;;;;;;;;;4979988;28;20089;-75
2023/04/01 07:06:11;;;;;;;14.52;7.10;;;;;;;;;;4979231;28;20113;-76
2023/04/01 07:09:00;;;;;;;13.05;6.75;;;;;;;;;;4965600;28;20069;-76
2023/04/01 07:11:45;;;;;;;11.45;6.18;;;;;;;;;;4980187;28;20359;-76
2023/04/01 07:14:39;;;;;;;9.57;5.80;;;;;;;;;;4965813;28;20019;-76
2023/04/01 07:17:30;;;;;;;9.82;5.78;;;;;;;;;;4979485;28;20025;-75
2023/04/01 07:20:15;;;;;;;9.07;5.68;;;;;;;;;;4979695;28;20023;-76
2023/04/01 07:23:05;;;;;;;10.25;6.30;;;;;;;;;;4978364;28;20062;-75
2023/04/01 07:25:58;;;;;;;10.65;5.90;;;;;;;;;;4979168;28;20029;-76
2023/04/01 07:28:43;;;;;;;8.98;6.35;;;;;;;;;;4979255;28;20018;-75
2023/04/01 07:31:48;;;;;;;10.02;6.68;;;;;;;;;;4977937;28;20085;-75
2023/04/01 07:34:50;;;;;;;19.15;7.00;;;;;;;;;;4979056;28;20439;-75
2023/04/01 07:37:38;;;;;;;12.32;7.70;;;;;;;;;;4979364;28;20023;-75
2023/04/01 07:40:31;;;;;;;16.85;7.72;;;;;;;;;;4978732;28;20023;-76
2023/04/01 07:43:19;;;;;;;16.02;8.98;;;;;;;;;;4979091;28;20447;-75
2023/04/01 07:46:05;;;;;;;13.63;8.77;;;;;;;;;;4978788;28;20022;-74
2023/04/01 07:48:51;;;;;;;13.80;9.65;;;;;;;;;;4978315;28;20026;-75
2023/04/01 07:51:55;;;;;;;17.83;10.30;;;;;;;;;;4972314;28;20045;-77
2023/04/01 07:54:56;;;;;;;17.35;9.95;;;;;;;;;;4998423;28;20101;-76
2023/04/01 07:57:50;;;;;;;16.15;9.82;;;;;;;;;;4997305;28;20026;-76
2023/04/01 08:00:36;;;;;;;18.40;9.55;;;;;;;;;;4983045;28;20033;-70
2023/04/01 08:03:40;;;;;;;19.23;9.93;;;;;;;;;;4996839;28;20101;-74
2023/04/01 08:06:41;;;;;;;15.00;9.10;;;;;;;;;;4997078;28;20113;-76
2023/04/01 08:09:33;;;;;;;17.23;9.70;;;;;;;;;;4996913;28;20470;-75
2023/04/01 08:12:42;;;;;;;20.60;10.30;;;;;;;;;;4997927;28;20033;-75
2023/04/01 08:15:31;;;;;;;15.48;9.52;;;;;;;;;;4951376;29;20039;-75
2023/04/01 08:18:20;;;;;;;21.90;10.55;;;;;;;;;;4971929;28;20055;-74
2023/04/01 08:21:11;;;;;;;19.50;10.73;;;;;;;;;;4956581;29;20034;-75
2023/04/01 08:24:00;;;;;;;22.50;11.52;;;;;;;;;;4956765;28;20062;-75
2023/04/01 08:26:48;;;;;;;23.08;10.90;;;;;;;;;;4956257;29;20023;-75
2023/04/01 08:29:40;;;;;;;19.85;10.30;;;;;;;;;;4958198;28;20115;-75
2023/04/01 08:32:28;;;;;;;19.10;9.35;;;;;;;;;;4957674;28;20019;-75
2023/04/01 08:35:26;;;;;;;18.90;8.98;;;;;;;;;;4958851;28;20360;-75
2023/04/01 08:38:31;;;;;;;16.08;7.90;;;;;;;;;;4958043;28;20027;-75
2023/04/01 08:41:16;;;;;;;16.95;7.30;;;;;;;;;;4944617;28;20027;-76
2023/04/01 08:44:02;;;;;;;11.30;6.80;;;;;;;;;;4957746;28;20027;-75
2023/04/01 08:47:06;;;;;;;16.83;6.80;;;;;;;;;;4957776;28;20020;-76
2023/04/01 08:50:10;;;;;;;15.70;7.03;;;;;;;;;;4957841;28;20046;-75
2023/04/01 08:53:11;;;;;;;16.05;6.93;;;;;;;;;;4957473;28;20027;-75
2023/04/01 08:56:14;;;;;;;12.13;6.60;;;;;;;;;;4943576;29;20034;-75
2023/04/01 08:59:18;;;;;;;9.65;6.18;;;;;;;;;;4957964;28;20112;-75
2023/04/01 09:02:12;;;;;;;16.83;6.40;;;;;;;;;;4957526;28;20031;-75
2023/04/01 09:05:02;;;;;;;13.57;6.07;;;;;;;;;;4956778;29;20020;-76
2023/04/01 09:07:53;;;;;;;14.18;5.72;;;;;;;;;;4958350;28;20020;-75
2023/04/01 09:10:57;;;;;;;13.68;6.22;;;;;;;;;;4957245;28;20027;-75
2023/04/01 09:13:43;;;;;;;13.52;6.20;;;;;;;;;;4957776;28;20114;-75
2023/04/01 09:16:37;;;;;;;14.77;5.90;;;;;;;;;;4961474;28;20086;-74
2023/04/01 09:19:35;;;;;;;15.52;6.55;;;;;;;;;;4966197;28;20355;-74
2023/04/01 09:22:43;;;;;;;12.70;6.90;;;;;;;;;;5001936;28;20158;-74
2023/04/01 09:25:45;;;;;;;12.52;6.75;;;;;;;;;;4957371;28;20373;-75
2023/04/01 09:28:41;;;;;;;14.38;6.90;;;;;;;;;;4957645;28;20102;-76
2023/04/01 09:31:47;;;;;;;11.98;5.85;;;;;;;;;;4955844;29;20019;-75
2023/04/01 09:34:51;;;;;;;9.90;5.95;;;;;;;;;;4957926;28;20066;-76
2023/04/01 09:37:40;;;;;;;11.73;6.32;;;;;;;;;;4957676;28;20511;-76
2023/04/01 09:40:32;;;;;;;13.23;6.70;;;;;;;;;;4956479;29;20094;-76
2023/04/01 09:43:47;;;;;;;12.75;6.65;;;;;;;;;;4957876;28;20030;-74
2023/04/01 09:46:42;;;;;;;9.60;6.97;;;;;;;;;;4900150;29;20102;-75
2023/04/01 09:49:34;;;;;;;18.52;7.50;;;;;;;;;;4958134;28;20106;-75
2023/04/01 09:52:32;;;;;;;11.65;6.63;;;;;;;;;;4943280;28;20026;-75
2023/04/01 09:55:20;;;;;;;12.30;6.90;;;;;;;;;;4958103;28;20494;-73
2023/04/01 09:58:25;;;;;;;11.00;5.82;;;;;;;;;;4974436;28;20027;-76
2023/04/01 10:01:31;;;;;;;8.65;5.10;;;;;;;;;;5002971;28;20031;-73
2023/04/01 10:04:16;;;;;;;7.30;5.28;;;;;;;;;;4996620;28;20459;-74
2023/04/01 10:07:14;;;;;;;9.90;5.82;;;;;;;;;;4975065;28;20206;-74
2023/04/01 10:10:00;;;;;;;8.68;5.53;;;;;;;;;;4974758;28;20510;-75
2023/04/01 10:13:04;;;;;;;9.57;5.55;;;;;;;;;;4974924;28;20030;-76
2023/04/01 10:15:56;;;;;;;10.80;6.15;;;;;;;;;;4979160;28;20097;-74
2023/04/01 10:19:08;;;;;;;10.23;5.72;;;;;;;;;;4982314;28;20033;-73
2023/04/01 10:22:02;;;;;;;10.98;5.90;;;;;;;;;;4985762;28;20038;-73
2023/04/01 10:25:06;;;;;;;10.70;6.20;;;;;;;;;;4980362;28;20046;-75
2023/04/01 10:27:52;;;;;;;9.73;5.72;;;;;;;;;;4979431;28;20051;-75
2023/04/01 10:30:44;;;;;;;10.00;6.07;;;;;;;;;;4979505;28;20034;-75
2023/04/01 10:33:48;;;;;;;6.65;5.07;;;;;;;;;;4978949;28;20023;-75
2023/04/01 10:36:49;;;;;;;7.75;4.25;;;;;;;;;;4981334;28;20037;-74
2023/04/01 10:39:35;;;;;;;11.70;4.35;;;;;;;;;;4980243;28;20022;-74
2023/04/01 10:42:50;;;;;;;6.78;3.97;;;;;;;;;;4967412;28;20026;-75
2023/04/01 10:45:41;;;;;;;6.70;4.18;;;;;;;;;;4982516;28;20022;-75
2023/04/01 10:48:30;;;;;;;6.43;4.47;;;;;;;;;;4981197;28;20430;-74
2023/04/01 10:51:34;;;;;;;12.68;4.57;;;;;;;;;;4979312;28;20114;-72
2023/04/01 10:54:29;;;;;;;8.00;4.55;;;;;;;;;;4980543;28;20073;-75
2023/04/01 10:57:33;;;;;;;10.27;5.20;;;;;;;;;;4980853;28;20445;-75
2023/04/01 11:00:22;;;;;;;9.10;4.88;;;;;;;;;;4969038;28;20030;-75
2023/04/01 11:03:26;;;;;;;9.10;4.55;;;;;;;;;;4982976;28;20527;-73
2023/04/01 11:06:30;;;;;;;10.30;5.00;;;;;;;;;;4949419;29;20050;-74
2023/04/01 11:09:35;;;;;;;9.55;5.40;;;;;;;;;;4962821;28;20029;-76
2023/04/01 11:12:26;;;;;;;9.18;5.35;;;;;;;;;;4961309;28;20031;-77
2023/04/01 11:15:30;;;;;;;10.27;5.95;;;;;;;;;;4961005;28;20043;-76
2023/04/01 11:18:19;;;;;;;10.88;6.13;;;;;;;;;;4959609;28;20011;-72
2023/04/01 11:21:05;;;;;;;7.97;6.10;;;;;;;;;;4958575;29;20038;-75
2023/04/01 11:24:00;;;;;;;9.38;6.05;;;;;;;;;;4960943;28;20126;-75
2023/04/01 11:26:48;;;;;;;18.52;6.32;;;;;;;;;;4960887;28;20066;-74
2023/04/01 11:29:57;;;;;;;10.20;6.22;;;;;;;;;;4960820;28;20019;-76
2023/04/01 11:33:01;;;;;;;19.08;7.10;;;;;;;;;;4922912;28;20433;-75
2023/04/01 11:35:57;;;;;;;13.25;6.60;;;;;;;;;;4959564;28;20512;-74
2023/04/01 11:38:43;;;;;;;11.07;6.75;;;;;;;;;;4946521;28;20023;-75
2023/04/01 11:41:47;;;;;;;13.18;6.80;;;;;;;;;;4962437;28;20417;-74
2023/04/01 11:44:35;;;;;;;12.30;7.13;;;;;;;;;;4962343;28;20138;-74
2023/04/01 11:47:26;;;;;;;11.90;7.20;;;;;;;;;;4946728;29;20026;-75
2023/04/01 11:50:18;;;;;;;11.05;6.78;;;;;;;;;;4963543;28;20087;-73
2023/04/01 11:53:17;;;;;;;12.05;7.75;;;;;;;;;;4962417;28;20023;-75
2023/04/01 11:56:21;;;;;;;18.58;6.97;;;;;;;;;;4946692;29;20463;-74
2023/04/01 11:59:13;;;;;;;10.95;7.00;;;;;;;;;;4963384;28;20035;-74
2023/04/01 12:01:58;;;;;;;12.40;7.63;;;;;;;;;;4948881;29;20110;-75
2023/04/01 12:04:44;;;;;;;12.07;7.38;;;;;;;;;;4963722;28;20141;-74
2023/04/01 12:07:33;;;;;;;14.15;7.00;;;;;;;;;;4951925;29;20337;-73
2023/04/01 12:10:21;;;;;;;10.50;6.53;;;;;;;;;;4949731;29;20073;-74
2023/04/01 12:13:14;;;;;;;11.63;7.70;;;;;;;;;;4950777;28;20015;-74
2023/04/01 12:16:00;;;;;;;14.07;7.20;;;;;;;;;;4949708;28;20413;-75
2023/04/01 12:18:52;;;;;;;12.13;7.10;;;;;;;;;;4958384;29;20115;-74
2023/04/01 12:21:44;;;;;;;13.57;7.18;;;;;;;;;;4944446;29;20019;-75
2023/04/01 12:24:42;;;;;;;10.15;7.28;;;;;;;;;;4959212;28;20055;-74
2023/04/01 12:27:46;;;;;;;9.60;6.65;;;;;;;;;;4958909;29;20460;-75
2023/04/01 12:30:44;;;;;;;11.43;7.18;;;;;;;;;;4959693;28;20062;-75
2023/04/01 12:33:48;;;;;;;10.90;7.30;;;;;;;;;;4959083;28;20058;-75
2023/04/01 12:36:40;;;;;;;13.95;6.82;;;;;;;;;;4958990;28;20356;-75
2023/04/01 12:39:44;;;;;;;13.45;7.18;;;;;;;;;;4958721;28;20035;-75
2023/04/01 12:42:49;;;;;;;12.18;7.68;;;;;;;;;;4968155;28;20042;-73
2023/04/01 12:45:39;;;;;;;9.38;6.95;;;;;;;;;;4977822;28;20047;-74
2023/04/01 12:48:33;;;;;;;19.67;11.23;;;;;;;;;;4959480;28;20038;-74
2023/04/01 12:51:20;;;;;;;13.00;7.00;;;;;;;;;;4959744;28;20380;-75
2023/04/01 12:54:09;;;;;;;14.95;8.02;;;;;;;;;;4944643;29;20106;-73
2023/04/01 12:56:57;;;;;;;16.80;8.07;;;;;;;;;;4958528;28;20019;-73
2023/04/01 12:59:46;;;;;;;16.15;8.52;;;;;;;;;;4958778;28;20023;-73
2023/04/01 13:02:41;;;;;;;15.55;8.52;;;;;;;;;;4944160;28;20031;-72
2023/04/01 13:05:52;;;;;;;17.88;9.20;;;;;;;;;;4959175;28;20027;-72
2023/04/01 13:08:56;;;;;;;20.60;9.23;;;;;;;;;;4959039;28;20134;-74
2023/04/01 13:11:44;;;;;;;12.50;8.05;;;;;;;;;;4958035;28;20118;-73
2023/04/01 13:14:36;;;;;;;14.95;8.25;;;;;;;;;;4958285;28;20372;-73
2023/04/01 13:17:24;;;;;;;14.02;8.23;;;;;;;;;;4957771;28;20452;-73
2023/04/01 13:20:22;;;;;;;17.33;8.00;;;;;;;;;;4958134;28;20110;-74
2023/04/01 13:23:26;;;;;;;13.80;8.10;;;;;;;;;;4957457;28;20541;-75
2023/04/01 13:26:14;;;;;;;12.70;8.05;;;;;;;;;;4958346;28;20043;-73
2023/04/01 13:29:17;;;;;;;15.73;8.32;;;;;;;;;;4957870;28;20459;-73
2023/04/01 13:32:10;;;;;;;15.43;8.52;;;;;;;;;;4943391;28;20413;-71
2023/04/01 13:34:56;;;;;;;14.98;9.02;;;;;;;;;;4956786;28;20031;-74
2023/04/01 13:37:42;;;;;;;12.30;8.10;;;;;;;;;;4957980;28;20023;-74
2023/04/01 13:40:27;;;;;;;13.70;7.82;;;;;;;;;;4957625;28;20015;-73
2023/04/01 13:43:24;;;;;;;17.20;8.82;;;;;;;;;;4957495;28;20023;-73
2023/04/01 13:46:23;;;;;;;14.13;8.65;;;;;;;;;;4957270;28;20051;-74
2023/04/01 13:49:12;;;;;;;13.82;8.90;;;;;;;;;;4942508;28;20467;-73
2023/04/01 13:52:12;;;;;;;13.60;8.10;;;;;;;;;;4957516;28;20117;-73
2023/04/01 13:55:27;;;;;;;13.05;8.35;;;;;;;;;;4930004;29;20011;-74
2023/04/01 13:58:15;;;;;;;15.52;9.00;;;;;;;;;;4899963;29;20024;-73
2023/04/01 14:01:00;;;;;;;15.07;8.25;;;;;;;;;;4957418;28;20470;-73
2023/04/01 14:04:02;;;;;;;18.40;9.30;;;;;;;;;;4957516;28;20037;-73
2023/04/01 14:07:06;;;;;;;13.70;9.27;;;;;;;;;;4957599;28;20425;-73
2023/04/01 14:09:52;;;;;;;13.00;9.13;;;;;;;;;;4957094;28;20509;-73
2023/04/01 14:12:49;;;;;;;15.13;9.30;;;;;;;;;;4957387;28;20019;-73
2023/04/01 14:15:51;;;;;;;17.77;9.88;;;;;;;;;;4956549;29;20102;-73
2023/04/01 14:18:39;;;;;;;17.23;9.65;;;;;;;;;;4956834;28;20023;-73
2023/04/01 14:21:25;;;;;;;13.48;9.82;;;;;;;;;;4957019;28;20031;-74
2023/04/01 14:24:30;;;;;;;12.23;9.00;;;;;;;;;;4957777;28;20512;-73
2023/04/01 14:27:19;;;;;;;14.63;10.48;;;;;;;;;;4956587;28;20031;-74
2023/04/01 14:30:05;;;;;;;15.32;10.32;;;;;;;;;;4957995;28;20110;-74
2023/04/01 14:33:11;;;;;;;16.83;10.35;;;;;;;;;;4956454;28;20367;-72
2023/04/01 14:36:10;;;;;;;17.63;11.15;;;;;;;;;;4942429;28;20035;-74
2023/04/01 14:38:59;;;;;;;17.20;10.27;;;;;;;;;;4942795;28;20023;-73
2023/04/01 14:41:59;;;;;;;15.93;10.40;;;;;;;;;;4956730;28;20447;-73
2023/04/01 14:44:47;;;;;;;17.50;9.93;;;;;;;;;;4958136;28;20038;-72
2023/04/01 14:47:32;;;;;;;15.73;10.50;;;;;;;;;;4956602;28;20031;-73
2023/04/01 14:50:21;;;;;;;14.80;10.07;;;;;;;;;;4978328;28;20018;-73
2023/04/01 14:53:12;;;;;;;12.93;9.70;;;;;;;;;;4994356;28;20077;-73
2023/04/01 14:55:59;;;;;;;15.43;9.85;;;;;;;;;;4958859;28;20026;-74
2023/04/01 14:58:46;;;;;;;13.60;9.32;;;;;;;;;;4944139;28;20027;-72
2023/04/01 15:01:42;;;;;;;13.18;9.05;;;;;;;;;;4945383;28;20027;-72
2023/04/01 15:04:31;;;;;;;17.00;9.68;;;;;;;;;;4960416;28;20051;-73
2023/04/01 15:07:29;;;;;;;15.40;9.77;;;;;;;;;;4946186;29;20027;-72
2023/04/01 15:10:21;;;;;;;15.77;10.40;;;;;;;;;;4960535;28;20363;-72
2023/04/01 15:13:14;;;;;;;17.85;12.13;;;;;;;;;;4972110;28;20027;-72
2023/04/01 15:16:18;;;;;;;21.67;11.25;;;;;;;;;;4961095;29;20027;-71
2023/04/01 15:19:22;;;;;;;17.95;10.88;;;;;;;;;;4979003;28;20094;-72
2023/04/01 15:22:20;;;;;;;18.17;10.80;;;;;;;;;;4972647;28;20567;-73
2023/04/01 15:25:06;;;;;;;16.13;10.45;;;;;;;;;;4978018;28;20081;-73
2023/04/01 15:27:55;;;;;;;18.60;12.20;;;;;;;;;;4965741;28;20046;-73
2023/04/01 15:30:50;;;;;;;17.67;10.77;;;;;;;;;;4965141;28;20042;-73
2023/04/01 15:33:51;;;;;;;15.98;10.10;;;;;;;;;;4965510;28;20081;-72
2023/04/01 15:36:39;;;;;;;16.20;9.40;;;;;;;;;;4977084;28;20106;-74
2023/04/01 15:39:31;;;;;;;18.55;10.63;;;;;;;;;;4993697;28;20022;-74
2023/04/01 15:42:32;;;;;;;15.10;9.18;;;;;;;;;;4978150;28;20079;-74
2023/04/01 15:45:23;;;;;;;15.90;9.75;;;;;;;;;;4964775;28;20169;-73
2023/04/01 15:48:28;;;;;;;22.30;10.85;;;;;;;;;;4964255;28;20031;-72
2023/04/01 15:51:25;;;;;;;15.93;9.85;;;;;;;;;;4979300;28;20018;-70
2023/04/01 15:54:16;;;;;;;18.20;10.05;;;;;;;;;;4977210;28;20042;-73
2023/04/01 15:57:02;;;;;;;15.68;9.75;;;;;;;;;;4965417;28;20015;-72
2023/04/01 16:00:07;;;;;;;13.02;9.00;;;;;;;;;;4977254;28;20436;-72
2023/04/01 16:03:14;;;;;;;17.08;9.48;;;;;;;;;;4977788;28;20038;-73
2023/04/01 16:06:09;;;;;;;11.93;7.30;;;;;;;;;;4977025;28;20023;-72
2023/04/01 16:08:54;;;;;;;11.27;7.07;;;;;;;;;;4977305;28;20463;-73
2023/04/01 16:11:49;;;;;;;10.95;6.90;;;;;;;;;;4977404;28;20439;-73
2023/04/01 16:14:55;;;;;;;11.55;6.90;;;;;;;;;;4976735;28;20034;-73
2023/04/01 16:17:55;;;;;;;14.07;7.20;;;;;;;;;;4977196;28;20451;-72
2023/04/01 16:21:04;;;;;;;12.73;7.03;;;;;;;;;;4976179;28;20340;-72
2023/04/01 16:24:10;;;;;;;11.75;7.72;;;;;;;;;;4975997;28;20074;-72
2023/04/01 16:27:12;;;;;;;15.00;8.50;;;;;;;;;;4949015;28;20077;-72
2023/04/01 16:30:03;;;;;;;15.60;9.68;;;;;;;;;;4976456;28;20015;-72
2023/04/01 16:32:54;;;;;;;18.58;11.07;;;;;;;;;;4976019;28;20423;-73
2023/04/01 16:35:40;;;;;;;16.95;11.27;;;;;;;;;;4963192;28;20022;-73
2023/04/01 16:38:31;;;;;;;24.23;12.45;;;;;;;;;;4975658;28;20486;-72
2023/04/01 16:41:17;;;;;;;25.40;12.45;;;;;;;;;;4975665;28;20027;-72
2023/04/01 16:44:09;;;;;;;26.95;14.95;;;;;;;;;;4975349;28;20050;-72
2023/04/01 16:46:59;;;;;;;18.67;12.23;;;;;;;;;;4977954;28;20027;-73
2023/04/01 16:49:52;;;;;;;19.58;11.18;;;;;;;;;;4977530;28;20022;-76
2023/04/01 16:52:59;;;;;;;23.27;13.48;;;;;;;;;;4964186;28;20081;-73